Αρχική σελίδα
METAR-TAF:

METAR-TAF

Αεροδρόμια :

Marysville-Beale, Καλιφόρνια, Ηνωμένες Πολιτείες Αμερικής

γεωγραφικό πλάτος: 39-08N, γεωγραφικό μήκος: 121-26W, υψόμετρο: 34 μ

Παρών καιρός

Η αναφορά έγινε 14 ώρες και 42 λεπτά πριν, στις 19:56 UTC
Άνεμος 5 kt από Δ
Θερμοκρασία 24°C
Υγρασία 41%
Πίεση 1013 hPa
Ορατότητα: 16.1 χλμ
Καθαρός ουρανός

METAR: KBAB 181956Z AUTO 26005KT 10SM CLR 24/10 A2990 RMK AO2 SLP128 T02390098 $

Χρόνος: 03:38 (10:38 UTC)

Πρόγνωση Καιρού

Η αναφορά έγινε 23 ώρες και 38 λεπτά πριν, στις 11:00 UTC
Η πρόγνωση ισχύει από τις 17 στις 11 UTC έως τις 18 στις 17 UTC
Άνεμος 6 kt από μεταβλητές κατευθύνσεις
Ορατότητα 10 χλμ και άνω
Καθαρός ουρανός

TAF: KBAB 171100Z 1711/1817 VRB06KT 9999 SKC QNH2984INS TX28/1723Z TN09/1713Z

Μετεωρολογικές αναφορές και προγνώσεις για περισσότερα από 4000 αεροδρόμια (δελτία METAR και TAF).

Οι διαθέσιμοι σταθμοί απεικονίζονται στο χάρτη με κίτρινες και κόκκινες κουκκίδες.

Μετακινήστε το ποντίκι πάνω από τις κουκκίδες για να δείτε το όνομα του σταθμού.

Στη συνέχεια, κάντε κλικ για να δείτε τις μετεωρολογικές αναφορές και τις προγνώσεις καιρού.

Για να αλλάξετε το χάρτη: κάντε κλικ στα πράσινα κουμπιά με τον μαύρο σταυρό για να ζουμάρετε, στο πράσινο κουμπί με την παύλα για να αφαιρέσετε το ζουμ ή στα πράσινα βέλη για να αντιπαραβάλλετε χάρτες.


METAR-TAF: